Time;durP1;ratioP1;P1;durP2;ratioP2;P2;SDS_P1;SDS_P2;PMS_P1;PMS_P2;Temp;Humidity;BMP_temperature;BMP_pressure;BME280_temperature;BME280_humidity;BME280_pressure;Samples;Min_cycle;Max_cycle;Signal;HPM_P1;HPM_P2
2023/09/01 00:01:16;;;;;;;1.60;1.60;;;;;;;19.44;100.00;97034.03;5023162;28;20132;-69
2023/09/01 00:03:43;;;;;;;1.70;1.70;;;;;;;19.54;100.00;97031.00;5021641;28;20062;-69
2023/09/01 00:06:14;;;;;;;1.70;1.70;;;;;;;19.57;100.00;97032.16;5022821;28;20056;-70
2023/09/01 00:08:43;;;;;;;1.70;1.70;;;;;;;19.58;100.00;97035.78;5023248;28;20167;-69
2023/09/01 00:11:11;;;;;;;1.65;1.65;;;;;;;19.34;100.00;96988.03;5021143;28;20500;-69
2023/09/01 00:13:37;;;;;;;1.70;1.70;;;;;;;19.81;100.00;97032.91;5023122;28;20048;-70
2023/09/01 00:16:05;;;;;;;1.90;1.90;;;;;;;19.57;100.00;96983.59;5023154;28;20057;-69
2023/09/01 00:18:32;;;;;;;2.03;2.03;;;;;;;19.88;100.00;97038.41;5023044;28;20053;-69
2023/09/01 00:21:03;;;;;;;1.88;1.88;;;;;;;19.83;100.00;97030.47;5002568;28;20517;-69
2023/09/01 00:23:31;;;;;;;1.73;1.73;;;;;;;19.98;100.00;97043.03;5002833;28;20093;-69
2023/09/01 00:25:59;;;;;;;1.60;1.60;;;;;;;19.63;100.00;96984.69;5003193;28;20049;-68
2023/09/01 00:28:26;;;;;;;1.88;1.88;;;;;;;19.67;100.00;96993.84;5001481;28;20053;-69
2023/09/01 00:30:58;;;;;;;1.85;1.85;;;;;;;19.33;100.00;96952.72;5002869;28;20064;-68
2023/09/01 00:33:29;;;;;;;1.98;1.98;;;;;;;20.00;100.00;97040.56;5034136;28;20054;-69
2023/09/01 00:35:57;;;;;;;1.80;1.80;;;;;;;20.09;100.00;97038.00;5033715;28;20054;-69
2023/09/01 00:38:29;;;;;;;2.00;2.00;;;;;;;20.11;100.00;97038.34;5002833;28;20050;-69
2023/09/01 00:40:56;;;;;;;1.67;1.67;;;;;;;19.94;100.00;97025.44;5002981;28;20090;-69
2023/09/01 00:43:22;;;;;;;1.73;1.73;;;;;;;19.93;100.00;97035.09;5002773;28;20140;-70
2023/09/01 00:45:49;;;;;;;1.80;1.80;;;;;;;19.85;100.00;97039.28;5034035;28;20050;-70
2023/09/01 00:48:17;;;;;;;1.75;1.75;;;;;;;19.88;100.00;97038.41;5003435;28;20049;-69
2023/09/01 00:50:49;;;;;;;1.80;1.80;;;;;;;19.91;100.00;97037.53;5003402;28;20054;-69
2023/09/01 00:53:21;;;;;;;1.70;1.70;;;;;;;19.86;100.00;97035.22;5004082;28;20045;-69
2023/09/01 00:55:50;;;;;;;1.63;1.63;;;;;;;19.87;100.00;97036.84;5004231;28;20393;-69
2023/09/01 00:58:17;;;;;;;1.67;1.67;;;;;;;19.90;100.00;97041.59;5004126;28;20141;-68
2023/09/01 01:00:44;;;;;;;1.90;1.90;;;;;;;19.92;100.00;97050.38;5003893;28;20060;-68
2023/09/01 01:03:12;;;;;;;1.77;1.77;;;;;;;19.91;100.00;97051.59;5003888;28;20053;-70
2023/09/01 01:06:09;;;;;;;2.03;2.03;;;;;;;19.82;100.00;97051.38;5003589;28;20571;-70
2023/09/01 01:08:42;;;;;;;1.60;1.60;;;;;;;19.87;100.00;97060.09;5001922;28;20053;-69
2023/09/01 01:11:30;;;;;;;1.85;1.85;;;;;;;18.68;100.00;96921.78;5001442;28;20049;-69
2023/09/01 01:14:03;;;;;;;1.63;1.63;;;;;;;19.30;100.00;96998.53;5002703;28;20050;-69
2023/09/01 01:16:31;;;;;;;1.60;1.60;;;;;;;19.39;100.00;97012.81;5000933;28;20046;-69
2023/09/01 01:19:04;;;;;;;1.65;1.65;;;;;;;19.63;100.00;97061.38;5003044;28;20063;-70
2023/09/01 01:21:36;;;;;;;1.70;1.70;;;;;;;19.69;100.00;97061.66;5022109;28;20501;-69
2023/09/01 01:24:05;;;;;;;1.73;1.73;;;;;;;19.73;100.00;97065.22;5022498;28;20080;-70
2023/09/01 01:26:31;;;;;;;2.00;2.00;;;;;;;19.47;100.00;97028.31;5022756;28;20300;-69
2023/09/01 01:28:58;;;;;;;1.77;1.77;;;;;;;19.76;100.00;97053.09;5020728;28;20095;-69
2023/09/01 01:31:25;;;;;;;1.75;1.75;;;;;;;19.81;100.00;97055.41;5022069;28;20057;-69
2023/09/01 01:33:56;;;;;;;1.73;1.73;;;;;;;19.86;100.00;97049.28;5019968;28;20574;-69
2023/09/01 01:36:43;;;;;;;1.70;1.70;;;;;;;19.85;100.00;97050.53;5021360;28;20045;-69
2023/09/01 01:39:15;;;;;;;1.85;1.85;;;;;;;19.80;100.00;97048.19;5021250;28;20049;-69
2023/09/01 01:41:53;;;;;;;1.50;1.50;;;;;;;19.75;100.00;97051.50;5022005;28;20049;-69
2023/09/01 01:44:26;;;;;;;1.80;1.80;;;;;;;19.64;100.00;97045.28;5022028;28;20064;-68
2023/09/01 01:46:54;;;;;;;1.77;1.77;;;;;;;17.47;100.00;96753.84;5021409;28;20053;-68
2023/09/01 01:49:20;;;;;;;1.58;1.58;;;;;;;19.44;100.00;97037.59;5021812;28;20050;-70
2023/09/01 01:51:47;;;;;;;1.77;1.77;;;;;;;19.47;100.00;97033.94;5020083;28;20145;-69
2023/09/01 01:54:14;;;;;;;1.55;1.55;;;;;;;19.42;100.00;97040.06;5022500;28;20094;-70
2023/09/01 01:56:41;;;;;;;1.65;1.65;;;;;;;19.03;100.00;96978.13;5022500;28;20132;-69
2023/09/01 01:59:08;;;;;;;1.88;1.88;;;;;;;19.34;100.00;97033.00;5022246;28;20053;-70
2023/09/01 02:01:34;;;;;;;1.67;1.67;;;;;;;19.25;100.00;97024.25;5021238;28;20071;-69
2023/09/01 02:04:05;;;;;;;1.70;1.70;;;;;;;19.13;100.00;97008.03;5022246;28;20057;-69
2023/09/01 02:06:31;;;;;;;1.60;1.60;;;;;;;19.18;100.00;97035.63;5021987;28;20049;-69
2023/09/01 02:08:58;;;;;;;1.70;1.70;;;;;;;19.17;100.00;97027.63;5020260;28;20053;-70
2023/09/01 02:11:25;;;;;;;1.55;1.55;;;;;;;19.09;100.00;97018.53;5021366;28;20046;-70
2023/09/01 02:13:51;;;;;;;1.65;1.65;;;;;;;19.10;100.00;97017.31;5021492;28;20057;-69
2023/09/01 02:16:18;;;;;;;1.70;1.70;;;;;;;18.81;100.00;96971.28;5021873;28;20137;-70
2023/09/01 02:18:45;;;;;;;1.67;1.67;;;;;;;19.10;100.00;97022.94;5021865;28;20456;-69
2023/09/01 02:21:22;;;;;;;1.70;1.70;;;;;;;19.00;100.00;97028.72;5021805;28;20064;-70
2023/09/01 02:23:49;;;;;;;1.60;1.60;;;;;;;18.91;100.00;97031.25;5022169;28;20561;-69
2023/09/01 02:26:23;;;;;;;1.60;1.60;;;;;;;18.70;100.00;96998.72;5021663;28;20053;-69
2023/09/01 02:28:49;;;;;;;1.60;1.60;;;;;;;18.74;100.00;97015.50;5021628;28;20090;-69
2023/09/01 02:31:17;;;;;;;1.50;1.50;;;;;;;18.86;100.00;97029.72;5021820;28;20456;-69
2023/09/01 02:33:44;;;;;;;1.40;1.40;;;;;;;18.78;100.00;97022.63;5020532;28;20054;-69
2023/09/01 02:36:32;;;;;;;1.70;1.70;;;;;;;18.26;100.00;96939.28;5021457;28;20128;-69
2023/09/01 02:39:00;;;;;;;1.70;1.70;;;;;;;18.78;100.00;97019.84;5021745;28;20348;-70
2023/09/01 02:41:28;;;;;;;1.60;1.60;;;;;;;18.67;100.00;97024.81;5020490;28;20139;-69
2023/09/01 02:43:54;;;;;;;1.40;1.40;;;;;;;18.34;100.00;96992.00;5000784;28;20057;-70
2023/09/01 02:46:21;;;;;;;1.60;1.60;;;;;;;18.46;100.00;97022.34;5002230;28;20448;-69
2023/09/01 02:48:48;;;;;;;1.45;1.45;;;;;;;16.31;100.00;96692.94;5000533;28;20066;-69
2023/09/01 02:51:15;;;;;;;1.30;1.30;;;;;;;18.40;100.00;97024.00;5002305;28;20054;-69
2023/09/01 02:53:42;;;;;;;1.63;1.63;;;;;;;18.43;100.00;97020.34;5002106;28;20357;-69
2023/09/01 02:56:09;;;;;;;1.50;1.50;;;;;;;18.36;100.00;97017.63;4999869;28;20054;-69
2023/09/01 02:58:36;;;;;;;1.50;1.50;;;;;;;18.33;100.00;97012.06;5004268;28;20437;-69
2023/09/01 03:01:10;;;;;;;1.50;1.50;;;;;;;18.19;100.00;97018.66;5005792;28;20057;-69
2023/09/01 03:03:40;;;;;;;1.60;1.60;;;;;;;18.10;100.00;97015.56;5005594;28;20045;-69
2023/09/01 03:06:10;;;;;;;1.60;1.60;;;;;;;18.16;100.00;97019.50;5006444;28;20057;-69
2023/09/01 03:08:38;;;;;;;1.77;1.77;;;;;;;18.08;100.00;97015.22;5005796;28;20057;-69
2023/09/01 03:11:05;;;;;;;1.60;1.60;;;;;;;18.08;100.00;97023.63;5004318;28;20053;-69
2023/09/01 03:13:32;;;;;;;1.50;1.50;;;;;;;17.90;100.00;96983.78;5005969;28;20123;-70
2023/09/01 03:15:59;;;;;;;1.70;1.70;;;;;;;18.03;100.00;97019.28;5005881;28;20480;-69
2023/09/01 03:18:26;;;;;;;1.63;1.63;;;;;;;17.89;100.00;97013.81;5006135;28;20054;-69
2023/09/01 03:20:53;;;;;;;1.60;1.60;;;;;;;17.86;100.00;97022.28;5022404;28;20459;-69
2023/09/01 03:23:21;;;;;;;1.40;1.40;;;;;;;17.62;100.00;96996.16;5025501;28;20077;-68
2023/09/01 03:25:55;;;;;;;1.50;1.50;;;;;;;17.59;100.00;96984.97;5025550;28;20525;-69
2023/09/01 03:28:22;;;;;;;1.33;1.33;;;;;;;17.84;100.00;97030.31;5025955;28;20613;-69
2023/09/01 03:30:49;;;;;;;1.45;1.45;;;;;;;17.78;100.00;97020.78;5025658;28;20129;-69
2023/09/01 03:33:15;;;;;;;1.50;1.50;;;;;;;17.48;100.00;96989.91;5025745;28;20077;-69
2023/09/01 03:35:42;;;;;;;1.58;1.58;;;;;;;17.73;100.00;97024.03;5025467;28;20050;-68
2023/09/01 03:38:09;;;;;;;1.70;1.70;;;;;;;17.51;100.00;97001.06;5025342;28;20066;-68
2023/09/01 03:40:36;;;;;;;1.45;1.45;;;;;;;17.64;100.00;97026.56;5025192;28;20502;-69
2023/09/01 03:43:03;;;;;;;1.23;1.23;;;;;;;17.69;100.00;97023.28;5025645;28;20120;-69
2023/09/01 03:45:29;;;;;;;1.40;1.40;;;;;;;17.54;100.00;97027.44;5024557;28;20501;-68
2023/09/01 03:47:56;;;;;;;1.30;1.30;;;;;;;17.66;100.00;97024.09;5025077;28;20049;-69
2023/09/01 03:50:23;;;;;;;1.63;1.63;;;;;;;17.74;100.00;97025.63;5024648;28;20060;-69
2023/09/01 03:52:49;;;;;;;1.70;1.70;;;;;;;17.69;100.00;97018.47;5024242;28;20062;-69
2023/09/01 03:55:16;;;;;;;1.50;1.50;;;;;;;17.75;100.00;97032.84;5022846;28;20045;-69
2023/09/01 03:57:43;;;;;;;1.50;1.50;;;;;;;17.70;100.00;97025.66;5022721;28;20540;-69
2023/09/01 04:00:11;;;;;;;1.50;1.50;;;;;;;17.70;100.00;97030.47;5023830;28;20156;-69
2023/09/01 04:02:38;;;;;;;1.50;1.50;;;;;;;17.71;100.00;97037.66;5024197;28;20055;-69
2023/09/01 04:05:05;;;;;;;1.30;1.30;;;;;;;17.57;100.00;97026.63;5024230;28;20609;-69
2023/09/01 04:07:32;;;;;;;1.60;1.60;;;;;;;17.39;100.00;96992.34;5024102;28;20052;-69
2023/09/01 04:09:58;;;;;;;1.50;1.50;;;;;;;17.89;100.00;97035.47;5022169;28;20248;-69
2023/09/01 04:12:25;;;;;;;1.70;1.70;;;;;;;17.88;100.00;97042.25;5022268;28;20042;-69
2023/09/01 04:14:52;;;;;;;1.60;1.60;;;;;;;17.96;100.00;97038.16;5023779;28;20050;-70
2023/09/01 04:17:18;;;;;;;1.48;1.48;;;;;;;18.02;100.00;97039.28;5023872;28;20049;-69
2023/09/01 04:19:47;;;;;;;1.48;1.48;;;;;;;17.98;100.00;97038.56;5023338;28;20045;-68
2023/09/01 04:22:14;;;;;;;1.70;1.70;;;;;;;17.32;100.00;96947.63;5022474;28;20100;-69
2023/09/01 04:24:41;;;;;;;1.60;1.60;;;;;;;17.96;100.00;97043.78;5023429;28;20053;-69
2023/09/01 04:27:08;;;;;;;1.48;1.48;;;;;;;17.99;100.00;97038.13;5023766;28;20456;-70
2023/09/01 04:29:36;;;;;;;1.45;1.45;;;;;;;17.98;100.00;97044.16;5023139;28;20479;-70
2023/09/01 04:32:03;;;;;;;1.70;1.70;;;;;;;18.07;100.00;97033.22;5023546;28;20048;-69
2023/09/01 04:34:32;;;;;;;1.40;1.40;;;;;;;18.20;100.00;97041.88;5023150;28;20053;-70
2023/09/01 04:36:59;;;;;;;1.58;1.58;;;;;;;17.93;100.00;96999.78;5022947;28;20431;-69
2023/09/01 04:39:25;;;;;;;1.70;1.70;;;;;;;18.05;100.00;97024.47;5018510;28;20068;-63
2023/09/01 04:41:52;;;;;;;1.60;1.60;;;;;;;18.09;100.00;97047.63;5005028;28;20074;-66
2023/09/01 04:44:19;;;;;;;1.60;1.60;;;;;;;17.78;100.00;97017.97;5015368;28;20049;-65
2023/09/01 04:46:45;;;;;;;1.58;1.58;;;;;;;17.83;100.00;96972.69;5004455;28;20140;-64
2023/09/01 04:49:12;;;;;;;1.48;1.48;;;;;;;18.39;100.00;97044.88;5022810;28;20132;-70
2023/09/01 04:51:39;;;;;;;1.67;1.67;;;;;;;18.22;100.00;96984.19;5022688;28;20152;-65
2023/09/01 04:54:07;;;;;;;1.70;1.70;;;;;;;18.55;100.00;97025.41;5021222;28;20052;-70
2023/09/01 04:56:33;;;;;;;1.40;1.40;;;;;;;17.78;100.00;96914.31;5023255;28;20512;-64
2023/09/01 04:59:00;;;;;;;1.55;1.55;;;;;;;18.68;100.00;97056.50;5022408;28;20368;-69
2023/09/01 05:01:27;;;;;;;1.67;1.67;;;;;;;18.39;100.00;96966.34;5022518;28;20065;-63
2023/09/01 05:03:53;;;;;;;1.60;1.60;;;;;;;19.13;100.00;97043.75;5021627;28;20045;-71
2023/09/01 05:06:20;;;;;;;1.67;1.67;;;;;;;18.75;100.00;96984.19;5019890;28;20056;-64
2023/09/01 05:08:47;;;;;;;1.70;1.70;;;;;;;19.03;100.00;97023.03;5021146;28;20064;-70
2023/09/01 05:11:13;;;;;;;1.80;1.80;;;;;;;19.07;100.00;97025.78;5021276;28;20054;-64
2023/09/01 05:13:40;;;;;;;1.70;1.70;;;;;;;19.17;100.00;97025.59;5020757;28;20308;-70
2023/09/01 05:16:07;;;;;;;1.70;1.70;;;;;;;19.43;100.00;97058.50;5021212;28;20060;-69
2023/09/01 05:18:34;;;;;;;1.50;1.50;;;;;;;19.63;100.00;97066.19;5021431;28;20428;-70
2023/09/01 05:21:00;;;;;;;1.92;1.92;;;;;;;19.39;100.00;97001.56;4989224;28;20379;-65
2023/09/01 05:23:31;;;;;;;1.90;1.90;;;;;;;19.50;100.00;97044.34;5001013;28;20056;-70
2023/09/01 05:25:57;;;;;;;1.70;1.70;;;;;;;19.86;100.00;97075.41;5002458;28;20086;-69
2023/09/01 05:28:24;;;;;;;1.90;1.90;;;;;;;19.94;100.00;97070.41;5000980;28;20056;-64
2023/09/01 05:30:51;;;;;;;1.88;1.88;;;;;;;19.16;98.07;96965.06;5002524;28;20089;-64
2023/09/01 05:33:18;;;;;;;1.80;1.80;;;;;;;19.92;98.03;97078.47;5001925;28;20054;-65
2023/09/01 05:35:44;;;;;;;1.80;1.80;;;;;;;20.03;97.28;97079.09;5001411;28;20089;-66
2023/09/01 05:38:11;;;;;;;1.70;1.70;;;;;;;19.57;95.48;97000.47;5002121;28;20045;-71
2023/09/01 05:40:38;;;;;;;1.90;1.90;;;;;;;20.06;97.83;97084.63;5001381;28;20053;-70
2023/09/01 05:43:04;;;;;;;1.80;1.80;;;;;;;19.74;96.36;97027.44;5002153;28;20049;-66
2023/09/01 05:45:31;;;;;;;1.92;1.92;;;;;;;19.36;97.88;96940.63;4988282;28;20057;-64
2023/09/01 05:47:58;;;;;;;1.90;1.90;;;;;;;20.20;94.61;97044.22;4994085;28;20054;-73
2023/09/01 05:50:24;;;;;;;1.80;1.80;;;;;;;20.02;93.41;96982.69;5001459;28;20399;-66
2023/09/01 05:52:53;;;;;;;2.00;2.00;;;;;;;20.55;94.97;97082.88;4999260;28;20069;-63
2023/09/01 05:55:19;;;;;;;1.90;1.90;;;;;;;20.34;93.62;97010.97;4984436;28;20050;-62
2023/09/01 05:57:46;;;;;;;2.08;2.08;;;;;;;20.84;94.04;97083.81;4990839;28;20095;-67
2023/09/01 06:00:13;;;;;;;1.80;1.80;;;;;;;21.14;91.04;97088.38;4982574;28;20069;-69
2023/09/01 06:02:39;;;;;;;2.20;2.20;;;;;;;21.40;91.12;97093.81;4983751;28;20046;-64
2023/09/01 06:05:07;;;;;;;1.92;1.92;;;;;;;21.00;88.94;96982.50;4982320;28;20094;-68
2023/09/01 06:07:33;;;;;;;1.95;1.95;;;;;;;21.33;89.19;96991.72;4990682;28;20129;-67
2023/09/01 06:10:00;;;;;;;2.28;2.28;;;;;;;21.79;89.34;97065.41;4982206;28;20054;-63
2023/09/01 06:12:27;;;;;;;2.15;2.15;;;;;;;22.02;88.41;97096.22;4999168;28;20513;-61
2023/09/01 06:14:53;;;;;;;2.70;2.60;;;;;;;21.88;88.30;97028.91;5001223;28;20504;-65
2023/09/01 06:17:20;;;;;;;2.50;2.40;;;;;;;22.18;87.29;97051.03;5000410;28;20053;-63
2023/09/01 06:20:07;;;;;;;2.58;2.47;;;;;;;22.48;87.97;97065.91;5000208;28;20054;-64
2023/09/01 06:22:34;;;;;;;2.42;2.38;;;;;;;22.40;86.57;97049.16;5005707;28;20060;-62
2023/09/01 06:25:03;;;;;;;2.50;2.40;;;;;;;22.84;85.78;97100.34;4994928;28;20054;-64
2023/09/01 06:27:29;;;;;;;2.65;2.55;;;;;;;22.32;84.74;96991.34;4984520;28;20647;-65
2023/09/01 06:29:57;;;;;;;2.97;2.88;;;;;;;23.23;83.20;97099.94;4998206;28;20527;-65
2023/09/01 06:32:24;;;;;;;2.67;2.58;;;;;;;23.31;81.78;97101.31;5002004;28;20050;-65
2023/09/01 06:34:50;;;;;;;2.90;2.80;;;;;;;23.39;81.04;97097.03;5005463;28;20050;-63
2023/09/01 06:37:18;;;;;;;2.47;2.40;;;;;;;23.44;81.51;97102.13;4996391;28;20388;-66
2023/09/01 06:39:45;;;;;;;2.80;2.70;;;;;;;23.31;79.97;97082.34;5004971;28;20509;-62
2023/09/01 06:42:12;;;;;;;3.00;2.90;;;;;;;23.28;77.25;97052.16;5003378;28;20057;-63
2023/09/01 06:44:38;;;;;;;2.90;2.80;;;;;;;23.80;78.56;97111.00;5007180;28;20061;-63
2023/09/01 06:47:05;;;;;;;2.85;2.75;;;;;;;23.96;71.40;97141.97;5004334;28;20046;-67
2023/09/01 06:49:32;;;;;;;2.90;2.80;;;;;;;23.58;71.86;97036.59;5003273;28;20057;-63
2023/09/01 06:51:58;;;;;;;2.83;2.72;;;;;;;24.05;72.97;97118.66;5003641;28;20049;-65
2023/09/01 06:54:25;;;;;;;2.72;2.63;;;;;;;23.67;69.21;97050.81;5002638;28;20046;-68
2023/09/01 06:56:52;;;;;;;3.10;3.00;;;;;;;24.26;71.83;97121.53;4988888;28;20572;-61
2023/09/01 06:59:19;;;;;;;3.00;2.90;;;;;;;24.30;71.87;97090.25;5003260;28;20551;-75
2023/09/01 07:01:47;;;;;;;3.17;3.08;;;;;;;24.41;64.06;97102.78;5002506;28;20050;-68
2023/09/01 07:04:14;;;;;;;2.72;2.63;;;;;;;24.56;66.21;97103.84;4995859;28;20049;-69
2023/09/01 07:06:41;;;;;;;2.92;2.83;;;;;;;24.35;64.63;97039.50;4990696;28;20509;-66
2023/09/01 07:09:08;;;;;;;3.40;3.30;;;;;;;25.03;64.75;97113.00;5004618;28;20068;-61
2023/09/01 07:11:34;;;;;;;3.20;3.10;;;;;;;24.81;58.57;97080.25;5002539;28;20077;-65
2023/09/01 07:14:01;;;;;;;3.35;3.25;;;;;;;25.39;59.26;97118.06;5001155;28;20056;-66
2023/09/01 07:16:27;;;;;;;3.60;3.50;;;;;;;25.57;62.50;97111.69;5004065;28;20049;-69
2023/09/01 07:18:54;;;;;;;3.60;3.50;;;;;;;24.15;58.12;96883.34;4996000;28;20054;-62
2023/09/01 07:21:21;;;;;;;3.28;3.17;;;;;;;25.37;54.70;97043.22;4989120;28;20064;-68
2023/09/01 07:23:48;;;;;;;4.00;3.90;;;;;;;25.58;54.91;97056.50;5001079;28;20884;-64
2023/09/01 07:26:15;;;;;;;3.63;3.53;;;;;;;26.12;55.11;97121.94;4984342;28;20057;-67
2023/09/01 07:28:43;;;;;;;3.40;3.30;;;;;;;25.89;52.43;97077.09;4998915;28;20540;-68
2023/09/01 07:31:12;;;;;;;3.72;3.63;;;;;;;26.04;52.71;97095.09;5000421;28;20085;-68
2023/09/01 07:33:42;;;;;;;3.75;3.65;;;;;;;25.94;51.92;97080.06;4987803;28;20677;-64
2023/09/01 07:36:11;;;;;;;3.80;3.70;;;;;;;26.45;51.36;97148.47;4982048;28;20084;-66
2023/09/01 07:38:38;;;;;;;3.40;3.30;;;;;;;25.97;51.89;97032.94;4993192;28;20053;-67
2023/09/01 07:41:06;;;;;;;3.75;3.65;;;;;;;26.42;51.19;97104.75;4988053;28;20063;-64
2023/09/01 07:43:33;;;;;;;3.80;3.70;;;;;;;26.69;51.37;97135.25;4999582;28;20052;-66
2023/09/01 07:46:00;;;;;;;3.72;3.63;;;;;;;26.47;48.73;97075.72;5002600;28;20058;-63
2023/09/01 07:48:27;;;;;;;3.75;3.65;;;;;;;26.28;50.70;97047.78;5000276;28;20078;-72
2023/09/01 07:50:55;;;;;;;3.53;3.42;;;;;;;27.02;49.22;97129.66;5000087;28;20137;-69
2023/09/01 07:53:22;;;;;;;3.70;3.60;;;;;;;26.53;48.75;97081.53;4989179;28;20058;-64
2023/09/01 07:55:48;;;;;;;3.75;3.65;;;;;;;26.12;49.54;97014.03;4998455;28;20046;-67
2023/09/01 07:58:15;;;;;;;4.00;3.90;;;;;;;26.97;48.07;97138.88;5001033;28;20053;-65
2023/09/01 08:00:42;;;;;;;3.63;3.53;;;;;;;26.64;48.02;97124.50;4997926;28;20054;-71
2023/09/01 08:03:12;;;;;;;3.90;3.80;;;;;;;26.27;49.01;97060.44;5002137;28;20089;-66
2023/09/01 08:05:40;;;;;;;3.58;3.47;;;;;;;26.90;50.11;97122.91;5000813;28;20061;-70
2023/09/01 08:08:07;;;;;;;3.92;3.83;;;;;;;27.14;48.44;97126.63;5000638;28;20065;-66
2023/09/01 08:10:35;;;;;;;4.03;3.92;;;;;;;27.22;47.04;97101.50;5002257;28;20457;-66
2023/09/01 08:13:02;;;;;;;3.85;3.75;;;;;;;26.91;48.02;97030.66;4996111;28;20136;-68
2023/09/01 08:15:28;;;;;;;3.97;3.88;;;;;;;27.47;48.59;97124.69;5002055;28;20406;-70
2023/09/01 08:17:55;;;;;;;4.22;4.13;;;;;;;26.99;48.33;97057.47;4994246;28;20049;-66
2023/09/01 08:20:22;;;;;;;4.32;4.22;;;;;;;27.47;48.25;97130.38;5000130;28;20053;-65
2023/09/01 08:22:49;;;;;;;4.00;3.90;;;;;;;27.76;47.18;97104.91;5008993;28;20049;-66
2023/09/01 08:25:17;;;;;;;3.90;3.80;;;;;;;27.70;46.37;97081.22;4996365;28;20046;-67
2023/09/01 08:27:44;;;;;;;3.63;3.53;;;;;;;27.33;44.75;97003.00;5002181;28;20049;-72
2023/09/01 08:30:11;;;;;;;3.97;3.88;;;;;;;27.98;45.69;97124.59;5001463;28;20042;-63
2023/09/01 08:32:42;;;;;;;4.05;3.95;;;;;;;27.01;46.21;96969.63;5002380;28;20133;-60
2023/09/01 08:35:10;;;;;;;4.15;4.05;;;;;;;28.12;47.45;97118.97;5002849;28;20049;-60
2023/09/01 08:37:38;;;;;;;3.97;3.88;;;;;;;28.01;46.13;97087.38;5001614;28;20057;-65
2023/09/01 08:40:06;;;;;;;4.18;4.07;;;;;;;27.38;46.09;97101.94;5001868;28;20077;-64
2023/09/01 08:42:34;;;;;;;4.10;4.00;;;;;;;27.51;47.36;97076.91;4996869;28;20058;-65
2023/09/01 08:45:03;;;;;;;4.03;3.92;;;;;;;27.40;47.25;97014.03;4999918;28;20054;-65
2023/09/01 08:47:39;;;;;;;4.03;3.92;;;;;;;26.12;45.92;96812.41;5001450;28;20081;-66
2023/09/01 08:50:07;;;;;;;3.88;3.78;;;;;;;28.07;44.83;97108.22;4995560;28;20052;-61
2023/09/01 08:52:35;;;;;;;3.97;3.88;;;;;;;27.77;44.33;97020.28;5000095;28;20586;-68
2023/09/01 08:55:02;;;;;;;4.13;4.03;;;;;;;28.59;44.80;97103.13;5001016;28;20049;-68
2023/09/01 08:57:29;;;;;;;4.07;3.97;;;;;;;28.51;44.80;97067.72;4990180;28;20042;-63
2023/09/01 08:59:56;;;;;;;4.45;4.35;;;;;;;28.38;45.49;97036.59;4990522;28;20066;-72
2023/09/01 09:02:22;;;;;;;4.13;4.03;;;;;;;28.81;43.03;97086.44;4998606;28;20469;-63
2023/09/01 09:04:49;;;;;;;4.05;3.95;;;;;;;28.62;43.27;97079.34;5002787;28;20053;-67
2023/09/01 09:07:18;;;;;;;4.07;3.97;;;;;;;27.33;43.82;96831.50;4999586;28;20057;-69
2023/09/01 09:09:49;;;;;;;3.83;3.72;;;;;;;28.67;41.99;97013.09;5002006;28;20045;-72
2023/09/01 09:12:16;;;;;;;4.22;4.13;;;;;;;29.23;42.83;97092.66;4994749;28;20183;-69
2023/09/01 09:14:49;;;;;;;4.22;4.13;;;;;;;29.26;41.17;97094.56;5000364;28;20057;-71
2023/09/01 09:17:23;;;;;;;4.35;4.25;;;;;;;29.15;40.85;97088.66;5001833;28;20507;-69
2023/09/01 09:19:54;;;;;;;4.28;4.18;;;;;;;29.07;40.06;97087.50;5001554;28;20060;-73
2023/09/01 09:22:21;;;;;;;4.25;4.15;;;;;;;28.96;39.78;97038.75;5001884;28;20416;-69
2023/09/01 09:24:48;;;;;;;4.15;4.05;;;;;;;28.89;39.51;97059.09;5000108;28;20049;-72
2023/09/01 09:27:17;;;;;;;3.80;3.70;;;;;;;27.95;39.50;97069.41;5000106;28;20057;-68
2023/09/01 09:29:48;;;;;;;3.83;3.72;;;;;;;28.17;40.44;97024.28;4999544;28;20049;-73
2023/09/01 09:32:20;;;;;;;4.25;4.15;;;;;;;28.85;41.11;97081.34;4987235;28;20516;-68
2023/09/01 09:35:10;;;;;;;4.10;4.00;;;;;;;28.98;41.00;97081.81;4999916;28;20176;-73
2023/09/01 09:37:39;;;;;;;4.18;4.07;;;;;;;29.21;38.41;97075.28;5000558;28;20137;-72
2023/09/01 09:40:16;;;;;;;3.83;3.72;;;;;;;29.20;38.83;97074.47;4999875;28;20053;-71
2023/09/01 09:42:44;;;;;;;4.18;4.07;;;;;;;28.31;39.57;96936.47;5001182;28;20050;-71
2023/09/01 09:45:34;;;;;;;4.35;4.25;;;;;;;29.11;38.76;97071.75;5000040;28;20150;-68
2023/09/01 09:48:04;;;;;;;3.92;3.83;;;;;;;28.35;38.89;96928.50;4999425;28;20132;-72
2023/09/01 09:50:34;;;;;;;4.15;4.05;;;;;;;27.91;38.91;96988.25;5001065;28;20096;-71
2023/09/01 09:53:05;;;;;;;4.65;4.55;;;;;;;29.13;40.91;97074.09;5000261;28;20479;-68
2023/09/01 09:55:44;;;;;;;4.18;4.07;;;;;;;28.57;37.62;97005.91;5000965;28;20049;-72
2023/09/01 09:58:12;;;;;;;4.22;4.13;;;;;;;29.09;39.04;97070.63;5000553;28;20147;-72
2023/09/01 10:01:02;;;;;;;3.92;3.83;;;;;;;29.21;39.86;97064.63;4999509;28;20050;-68
2023/09/01 10:03:29;;;;;;;4.00;3.90;;;;;;;29.21;38.58;96995.38;5000815;28;20485;-68
2023/09/01 10:05:58;;;;;;;4.00;3.90;;;;;;;29.95;39.13;97063.22;5000562;28;20079;-69
2023/09/01 10:08:26;;;;;;;4.43;4.32;;;;;;;28.64;38.88;96854.41;4998382;28;20065;-67
2023/09/01 10:10:56;;;;;;;4.30;4.20;;;;;;;28.76;38.85;97002.38;5000542;28;20080;-68
2023/09/01 10:13:24;;;;;;;4.30;4.20;;;;;;;28.78;39.46;96993.31;5001157;28;20049;-73
2023/09/01 10:15:51;;;;;;;4.00;3.90;;;;;;;29.56;39.61;97027.53;5000596;28;20072;-68
2023/09/01 10:18:19;;;;;;;4.00;3.90;;;;;;;29.71;37.85;97062.59;5000347;28;20057;-73
2023/09/01 10:20:46;;;;;;;4.30;4.20;;;;;;;29.78;37.77;97053.63;5000473;28;20136;-71
2023/09/01 10:23:13;;;;;;;4.07;3.97;;;;;;;29.40;38.55;97059.50;5000691;28;20146;-72
2023/09/01 10:25:40;;;;;;;3.78;3.67;;;;;;;29.13;39.20;97045.56;5000561;28;20049;-72
2023/09/01 10:28:11;;;;;;;4.05;3.95;;;;;;;29.25;40.21;97058.72;5001036;28;21158;-73
2023/09/01 10:30:44;;;;;;;4.53;4.43;;;;;;;28.09;38.74;96809.44;4999652;28;20080;-68
2023/09/01 10:33:16;;;;;;;4.13;4.03;;;;;;;29.37;37.98;97034.81;4999317;28;20563;-73
2023/09/01 10:35:43;;;;;;;4.47;4.38;;;;;;;29.73;38.92;97056.38;4999411;28;20085;-72
2023/09/01 10:38:11;;;;;;;4.05;3.95;;;;;;;29.73;37.67;97065.75;5001004;28;20138;-72
2023/09/01 10:40:42;;;;;;;4.13;4.03;;;;;;;29.74;37.60;97057.94;5000807;28;20095;-72
2023/09/01 10:43:11;;;;;;;4.00;3.90;;;;;;;30.23;38.60;97050.09;4999321;28;20061;-71
2023/09/01 10:45:39;;;;;;;4.60;4.50;;;;;;;29.92;37.06;97021.34;4997247;28;20058;-64
2023/09/01 10:48:11;;;;;;;4.10;4.00;;;;;;;28.04;38.89;96874.88;4995547;28;20590;-63
2023/09/01 10:50:41;;;;;;;3.90;3.80;;;;;;;28.81;39.94;97023.69;4980049;28;20120;-70
2023/09/01 10:53:35;;;;;;;4.20;4.10;;;;;;;29.30;39.79;97055.97;4990892;28;20088;-68
2023/09/01 10:56:08;;;;;;;4.35;4.25;;;;;;;29.46;39.44;97024.06;4980388;28;20538;-73
2023/09/01 10:58:54;;;;;;;4.07;3.97;;;;;;;28.26;39.06;96831.72;4992794;28;20042;-69
2023/09/01 11:01:25;;;;;;;4.22;4.13;;;;;;;30.15;39.14;97062.41;4982131;28;20054;-68
2023/09/01 11:03:52;;;;;;;4.25;4.15;;;;;;;28.94;38.40;96919.44;4998511;28;20069;-66
2023/09/01 11:06:20;;;;;;;4.10;4.00;;;;;;;30.17;38.24;97054.94;5000439;28;20084;-68
2023/09/01 11:09:00;;;;;;;3.90;3.80;;;;;;;29.43;38.48;97035.66;4994081;28;20065;-69
2023/09/01 11:11:28;;;;;;;4.50;4.40;;;;;;;29.30;40.06;97021.72;4986166;28;20055;-63
2023/09/01 11:13:59;;;;;;;4.47;4.38;;;;;;;29.77;39.43;97049.19;4985079;28;20049;-75
2023/09/01 11:16:26;;;;;;;3.80;3.70;;;;;;;28.46;39.52;96952.28;4982385;28;20052;-62
2023/09/01 11:19:02;;;;;;;4.28;4.18;;;;;;;29.22;39.90;97048.28;4998530;28;20064;-63
2023/09/01 11:21:30;;;;;;;4.05;3.95;;;;;;;29.39;40.39;97061.56;4995543;28;20056;-62
2023/09/01 11:24:00;;;;;;;3.97;3.88;;;;;;;28.97;39.71;97060.28;5001247;28;20499;-67
2023/09/01 11:26:28;;;;;;;4.35;4.25;;;;;;;29.22;40.44;97054.81;4990862;28;20058;-64
2023/09/01 11:28:55;;;;;;;3.78;3.67;;;;;;;27.51;40.82;96729.69;4989136;28;20112;-69
2023/09/01 11:31:22;;;;;;;4.30;4.20;;;;;;;28.86;39.77;96971.69;4984466;28;20078;-68
2023/09/01 11:33:54;;;;;;;4.28;4.18;;;;;;;28.64;40.88;96945.63;5007953;28;20065;-72
2023/09/01 11:36:20;;;;;;;4.30;4.20;;;;;;;29.35;39.82;97045.91;4996621;28;20049;-64